Desert Springs, Nevada Weather observations

Data are for 10 minute period ending at time listed.
 Day   Time    Ave.   Ave.  Ave.  Vector   Max.   Total    Solar   
  of    of     Air    Rel.  Wind   Wind    Wind  Precip.   Rad.    
Year   Day     Temp.  Hum.  Speed  Dir.    Gust                    
2016   (PST)    F      %     mph   deg.    mph     in.     W/m2    
------------------------------------------------------------------- 
 149   23:00   58.0    41    3.0   210      4.0    4.29       0  
 150    0:00   56.0    47    3.0   257      5.0    4.29       0  
 150    1:00   55.0    51    4.0   232      5.0    4.29       0  
 150    2:00   54.0    49    7.0   235      8.0    4.29       0  
 150    3:00   53.0    51    6.0   238      9.0    4.29       0  
 150    4:00   53.0    51    5.0   250      7.0    4.29       0  
 150    5:00   52.0    53    7.0   245      9.0    4.29       1  
 150    6:00   54.0    51    5.0   251      8.0    4.29      64  
 150    7:00   57.0    48    5.0   241      8.0    4.29     249  
 150    8:00   63.0    41    2.0   264      5.0    4.29     448  
 150    9:00   67.0    36    5.0   142      9.0    4.29     635  
 150   10:00   70.0    31    5.0   121     12.0    4.29     796  
 150   11:00   73.0    25    2.0    38     14.0    4.29     911  
 150   12:00   75.0    23    5.0   265     14.0    4.29     990  
 150   13:00   76.0    22    6.0   341     16.0    4.29     988  
 150   14:00   79.0    20    7.0   241     19.0    4.29     791  
 150   15:00   76.0    21   14.0   286     26.0    4.29     723  
 150   16:00   77.0    18   18.0   298     33.0    4.29     670  
 150   17:00   76.0    17   21.0   305     31.0    4.29     545  
 150   18:00   73.0    19   22.0   296     29.0    4.29     303  
 150   19:00   70.0    20   20.0   285     28.0    4.29     150  
 150   20:00   65.0    25   15.0   277     24.0    4.29      22  
 150   21:00   63.0    27   12.0   262     17.0    4.29       0  
 150   22:00   61.0    30   10.0   274     17.0    4.29       0  

Return to Desert Springs, Nevada graphs page.


Western Regional Climate Center,wrcc@dri.edu